Time;durP1;ratioP1;P1;durP2;ratioP2;P2;SDS_P1;SDS_P2;PMS_P1;PMS_P2;Temp;Humidity;BMP_temperature;BMP_pressure;BME280_temperature;BME280_humidity;BME280_pressure;Samples;Min_cycle;Max_cycle;Signal;HPM_P1;HPM_P2
2021/10/02 00:35:10;;;;;;;7.90;4.82;;;16.10;71.60;;;;;;5076380;28;20058;-74
2021/10/02 00:45:53;;;;;;;9.07;4.45;;;15.90;72.80;;;;;;5076243;28;20210;-72
2021/10/02 00:48:18;;;;;;;8.52;4.57;;;15.80;73.40;;;;;;5075776;28;20032;-72
2021/10/02 00:50:48;;;;;;;7.30;4.22;;;15.70;73.50;;;;;;5075968;28;20027;-72
2021/10/02 00:53:14;;;;;;;5.18;4.25;;;15.70;73.60;;;;;;5075810;28;20090;-71
2021/10/02 00:55:40;;;;;;;6.80;4.90;;;15.70;74.00;;;;;;5076000;28;20400;-75
2021/10/02 00:58:06;;;;;;;7.38;4.82;;;15.60;73.90;;;;;;5079508;28;20033;-74
2021/10/02 01:00:32;;;;;;;6.78;5.05;;;15.60;74.00;;;;;;5090194;28;20052;-74
2021/10/02 01:03:38;;;;;;;9.57;5.25;;;15.60;74.10;;;;;;5082502;28;20024;-74
2021/10/02 01:06:53;;;;;;;6.18;4.55;;;15.50;74.30;;;;;;5064595;28;20036;-74
2021/10/02 01:09:40;;;;;;;8.13;4.55;;;15.50;75.50;;;;;;5066249;28;20045;-74
2021/10/02 01:12:37;;;;;;;7.32;4.85;;;15.40;75.00;;;;;;5075678;28;20518;-75
2021/10/02 01:15:10;;;;;;;7.25;4.82;;;15.30;75.70;;;;;;5075206;28;20104;-74
2021/10/02 01:17:53;;;;;;;6.72;5.28;;;15.20;76.00;;;;;;5075582;28;20064;-74
2021/10/02 01:21:06;;;;;;;9.98;5.38;;;15.20;76.20;;;;;;5075561;28;20566;-74
2021/10/02 01:23:53;;;;;;;6.55;4.72;;;15.10;76.80;;;;;;5053780;28;20056;-75
2021/10/02 01:26:25;;;;;;;7.32;4.80;;;15.00;77.00;;;;;;5053501;28;20053;-74
2021/10/02 01:28:55;;;;;;;9.27;4.75;;;15.00;77.10;;;;;;5067655;28;20045;-73
2021/10/02 01:31:34;;;;;;;5.63;4.60;;;15.00;77.30;;;;;;5075331;28;20029;-75
2021/10/02 01:34:08;;;;;;;9.18;4.43;;;15.00;77.30;;;;;;5075293;28;20028;-74
2021/10/02 01:36:55;;;;;;;6.05;4.40;;;15.00;77.50;;;;;;5075187;28;20369;-74
2021/10/02 01:47:52;;;;;;;12.40;5.78;;;14.90;78.00;;;;;;5075135;28;20075;-74
2021/10/02 01:50:27;;;;;;;10.13;7.22;;;14.80;78.30;;;;;;5074931;28;20473;-75
2021/10/02 01:52:56;;;;;;;9.55;6.38;;;14.70;79.00;;;;;;5074789;28;20056;-74
2021/10/02 01:55:25;;;;;;;16.40;9.65;;;14.60;79.20;;;;;;5074985;28;20373;-74
2021/10/02 01:57:57;;;;;;;18.77;9.13;;;14.60;79.60;;;;;;5074849;28;20507;-72
2021/10/02 02:00:23;;;;;;;13.85;8.88;;;14.50;80.00;;;;;;5074800;28;20029;-72
2021/10/02 02:02:52;;;;;;;14.20;9.70;;;14.40;80.30;;;;;;5074753;28;20081;-72
2021/10/02 02:05:20;;;;;;;12.02;8.23;;;14.40;80.40;;;;;;5074813;28;20020;-72
2021/10/02 02:07:50;;;;;;;12.45;7.72;;;14.40;80.40;;;;;;5074480;28;20042;-72
2021/10/02 02:10:18;;;;;;;11.35;7.78;;;14.40;80.30;;;;;;5074587;28;20028;-73
2021/10/02 02:12:45;;;;;;;9.13;6.35;;;14.30;80.40;;;;;;5074500;28;20052;-71
2021/10/02 02:15:12;;;;;;;13.63;6.22;;;14.40;80.40;;;;;;5074474;28;20024;-72
2021/10/02 02:17:45;;;;;;;7.55;4.63;;;14.30;80.40;;;;;;5074336;28;20027;-72
2021/10/02 02:20:18;;;;;;;6.13;4.13;;;14.30;80.20;;;;;;5074312;28;20036;-72
2021/10/02 02:22:43;;;;;;;7.30;4.20;;;14.30;80.40;;;;;;5074253;28;20055;-72
2021/10/02 02:25:09;;;;;;;6.88;4.57;;;14.20;80.50;;;;;;5074349;28;20409;-72
2021/10/02 02:27:36;;;;;;;6.90;4.45;;;14.20;80.80;;;;;;5073135;28;20033;-72
2021/10/02 02:30:03;;;;;;;8.05;4.60;;;14.20;80.80;;;;;;5074203;28;20473;-72
2021/10/02 02:32:30;;;;;;;7.63;4.80;;;14.20;80.70;;;;;;5074100;28;20115;-73
2021/10/02 02:34:56;;;;;;;6.82;4.68;;;14.10;80.70;;;;;;5074151;28;20035;-73
2021/10/02 02:37:22;;;;;;;6.75;4.93;;;14.10;80.70;;;;;;5073915;28;20024;-72
2021/10/02 02:39:47;;;;;;;7.32;4.55;;;14.10;80.80;;;;;;5072841;28;20028;-72
2021/10/02 02:42:13;;;;;;;9.73;5.47;;;14.10;80.80;;;;;;5073864;28;20021;-72
2021/10/02 02:44:39;;;;;;;5.72;4.82;;;14.10;80.80;;;;;;5073772;28;20036;-74
2021/10/02 02:47:09;;;;;;;6.50;4.60;;;14.00;80.90;;;;;;5073520;28;20480;-74
2021/10/02 02:49:46;;;;;;;6.57;4.90;;;14.00;81.10;;;;;;5073707;28;20061;-72
2021/10/02 02:52:18;;;;;;;7.40;4.97;;;14.00;80.80;;;;;;5073705;28;20520;-72
2021/10/02 02:54:54;;;;;;;4.63;3.75;;;14.00;80.60;;;;;;5073705;28;20040;-72
2021/10/02 02:57:24;;;;;;;10.68;5.22;;;14.00;80.50;;;;;;5073671;28;20021;-73
2021/10/02 03:00:00;;;;;;;6.63;4.88;;;13.90;80.50;;;;;;5073604;28;20529;-72
2021/10/02 03:02:26;;;;;;;8.85;5.10;;;13.80;80.50;;;;;;5073530;28;20024;-72
2021/10/02 03:04:56;;;;;;;7.60;5.43;;;13.70;80.80;;;;;;5073458;28;20457;-72
2021/10/02 03:07:24;;;;;;;8.27;5.22;;;13.70;80.90;;;;;;5073356;28;20547;-72
2021/10/02 03:09:52;;;;;;;7.97;4.82;;;13.60;80.80;;;;;;5073466;28;20037;-72
2021/10/02 03:12:25;;;;;;;6.85;4.28;;;13.50;80.90;;;;;;5073476;28;20028;-72
2021/10/02 03:14:53;;;;;;;7.25;4.82;;;13.50;81.10;;;;;;5073331;28;20491;-73
2021/10/02 03:17:20;;;;;;;9.73;4.47;;;13.50;81.10;;;;;;5073297;28;20020;-71
2021/10/02 03:19:47;;;;;;;10.23;4.95;;;13.50;81.00;;;;;;5073293;28;20029;-74
2021/10/02 03:22:14;;;;;;;6.30;4.95;;;13.30;81.30;;;;;;5072000;28;20020;-71
2021/10/02 03:24:40;;;;;;;7.20;4.95;;;13.30;81.50;;;;;;5073307;28;20024;-71
2021/10/02 03:27:10;;;;;;;10.82;5.03;;;13.20;81.50;;;;;;5073090;28;20454;-74
2021/10/02 03:29:38;;;;;;;9.10;5.10;;;13.20;81.60;;;;;;5073125;28;20088;-73
2021/10/02 03:32:05;;;;;;;8.77;4.32;;;13.20;82.00;;;;;;5073101;28;20515;-74
2021/10/02 03:34:32;;;;;;;8.90;4.68;;;13.10;82.00;;;;;;5073182;28;20059;-73
2021/10/02 03:36:58;;;;;;;7.63;4.55;;;13.10;82.10;;;;;;5073131;28;20048;-72
2021/10/02 03:39:23;;;;;;;9.65;4.50;;;13.00;82.00;;;;;;5072730;28;20511;-74
2021/10/02 03:42:12;;;;;;;9.65;5.07;;;13.00;82.00;;;;;;5072994;28;20021;-73
2021/10/02 03:44:43;;;;;;;12.05;4.97;;;13.00;81.90;;;;;;5072972;28;20028;-73
2021/10/02 03:47:10;;;;;;;9.73;5.13;;;12.90;82.10;;;;;;5072733;28;20025;-73
2021/10/02 03:49:36;;;;;;;12.45;6.28;;;12.80;82.10;;;;;;5072738;28;20378;-73
2021/10/02 03:52:02;;;;;;;11.95;7.43;;;12.70;83.40;;;;;;5072734;28;20049;-74
2021/10/02 03:54:28;;;;;;;10.90;6.68;;;12.70;82.80;;;;;;5072808;28;20115;-73
2021/10/02 03:56:53;;;;;;;10.68;6.38;;;12.70;82.90;;;;;;5072919;28;20060;-74
2021/10/02 03:59:19;;;;;;;14.02;6.90;;;12.60;83.10;;;;;;5072858;28;20117;-73
2021/10/02 04:01:44;;;;;;;13.18;7.47;;;12.60;83.10;;;;;;5075451;28;20029;-74
2021/10/02 04:04:10;;;;;;;12.13;6.60;;;12.60;83.00;;;;;;5075150;28;20387;-72
2021/10/02 04:06:36;;;;;;;12.93;6.35;;;12.60;83.10;;;;;;5072913;28;20025;-73
2021/10/02 04:09:02;;;;;;;12.80;6.22;;;12.60;83.00;;;;;;5072707;28;20043;-74
2021/10/02 04:11:27;;;;;;;9.18;6.40;;;12.60;82.80;;;;;;5072732;28;20025;-74
2021/10/02 04:13:53;;;;;;;12.73;7.88;;;12.60;82.90;;;;;;5072785;28;20032;-73
2021/10/02 04:16:19;;;;;;;11.75;5.63;;;12.60;82.80;;;;;;5072674;28;20168;-72
2021/10/02 04:18:44;;;;;;;8.55;5.15;;;12.50;83.20;;;;;;5072623;28;20995;-72
2021/10/02 04:21:10;;;;;;;6.82;4.53;;;12.60;83.10;;;;;;5072750;28;20024;-72
2021/10/02 04:23:35;;;;;;;7.15;4.70;;;12.60;82.90;;;;;;5072645;28;20115;-73
2021/10/02 04:26:01;;;;;;;7.22;4.75;;;12.60;82.80;;;;;;5071202;28;20388;-73
2021/10/02 04:28:26;;;;;;;6.85;4.47;;;12.60;82.70;;;;;;5071791;28;20123;-72
2021/10/02 04:30:52;;;;;;;9.27;4.70;;;12.60;82.80;;;;;;5072522;28;20025;-72
2021/10/02 04:33:18;;;;;;;9.75;4.70;;;12.70;82.30;;;;;;5072547;28;20686;-72
2021/10/02 04:35:44;;;;;;;9.23;6.15;;;12.60;82.00;;;;;;5072514;28;20020;-72
2021/10/02 04:38:09;;;;;;;9.38;6.18;;;12.60;82.30;;;;;;5072512;28;20044;-72
2021/10/02 04:40:35;;;;;;;9.38;5.93;;;12.50;82.70;;;;;;5072455;28;20448;-73
2021/10/02 04:43:00;;;;;;;10.52;5.57;;;12.60;82.80;;;;;;5072464;28;20029;-72
2021/10/02 04:45:26;;;;;;;10.43;5.63;;;12.50;82.80;;;;;;5072390;28;20029;-72
2021/10/02 04:47:51;;;;;;;9.05;5.72;;;12.60;82.60;;;;;;5072350;28;20388;-73
2021/10/02 04:50:17;;;;;;;10.18;6.25;;;12.60;82.70;;;;;;5072630;28;20096;-72
2021/10/02 04:52:43;;;;;;;10.02;6.22;;;12.60;82.60;;;;;;5075906;28;20048;-72
2021/10/02 04:55:10;;;;;;;8.25;5.68;;;12.60;82.50;;;;;;5076111;28;20417;-72
2021/10/02 04:57:36;;;;;;;7.65;5.53;;;12.60;82.30;;;;;;5075957;28;20118;-72
2021/10/02 05:00:03;;;;;;;10.48;6.20;;;12.60;82.20;;;;;;5074705;28;20028;-72
2021/10/02 05:02:29;;;;;;;7.47;4.93;;;12.60;82.30;;;;;;5076005;28;20047;-72
2021/10/02 05:04:55;;;;;;;10.05;5.65;;;12.60;82.20;;;;;;5075865;28;20040;-72
2021/10/02 05:07:20;;;;;;;6.65;5.10;;;12.70;82.20;;;;;;5075760;28;20036;-73
2021/10/02 05:09:46;;;;;;;10.13;5.50;;;12.70;82.10;;;;;;5074579;28;20024;-74
2021/10/02 05:12:11;;;;;;;10.43;5.43;;;12.70;81.90;;;;;;5074684;28;20482;-73
2021/10/02 05:14:38;;;;;;;9.88;4.95;;;12.60;81.80;;;;;;5075643;28;20073;-73
2021/10/02 05:17:10;;;;;;;11.68;5.60;;;12.60;81.80;;;;;;5075584;28;20028;-73
2021/10/02 05:19:37;;;;;;;11.90;5.88;;;12.60;82.00;;;;;;5075521;28;20396;-73
2021/10/02 05:22:03;;;;;;;6.82;5.35;;;12.50;82.30;;;;;;5075566;28;20024;-73
2021/10/02 05:24:28;;;;;;;9.77;5.20;;;12.50;82.60;;;;;;5074065;28;20025;-73
2021/10/02 05:26:54;;;;;;;9.50;4.97;;;12.50;82.70;;;;;;5074526;28;20021;-74
2021/10/02 05:29:19;;;;;;;9.23;5.78;;;12.40;82.80;;;;;;5074883;28;20020;-75
2021/10/02 05:31:45;;;;;;;12.63;5.60;;;12.30;83.00;;;;;;5075032;28;20052;-73
2021/10/02 05:34:11;;;;;;;9.82;5.70;;;12.40;83.10;;;;;;5075139;28;20389;-73
2021/10/02 05:36:37;;;;;;;11.13;5.85;;;12.30;83.20;;;;;;5075142;28;20024;-73
2021/10/02 05:39:03;;;;;;;10.65;5.65;;;12.30;83.40;;;;;;5075035;28;20036;-73
2021/10/02 05:41:29;;;;;;;9.38;5.35;;;12.30;83.30;;;;;;5073599;28;20027;-73
2021/10/02 05:43:54;;;;;;;6.95;5.03;;;12.30;83.30;;;;;;5074923;28;20373;-73
2021/10/02 05:46:20;;;;;;;8.90;5.60;;;12.30;83.10;;;;;;5074739;28;20033;-73
2021/10/02 05:48:46;;;;;;;10.30;5.68;;;12.40;83.00;;;;;;5074585;28;20082;-73
2021/10/02 05:51:12;;;;;;;10.50;5.80;;;12.30;82.70;;;;;;5074461;28;20024;-73
2021/10/02 05:53:37;;;;;;;8.85;5.30;;;12.40;82.50;;;;;;5072987;28;20404;-73
2021/10/02 05:56:03;;;;;;;10.55;5.45;;;12.50;82.50;;;;;;5074564;28;20111;-73
2021/10/02 05:58:29;;;;;;;8.50;5.15;;;12.50;82.00;;;;;;5074250;28;20036;-72
2021/10/02 06:00:54;;;;;;;8.98;5.32;;;12.60;81.20;;;;;;5074395;28;20025;-73
2021/10/02 06:03:20;;;;;;;9.20;4.68;;;12.70;81.00;;;;;;5074420;28;20077;-73
2021/10/02 06:05:46;;;;;;;8.52;5.65;;;12.70;80.70;;;;;;5072815;28;20146;-74
2021/10/02 06:08:11;;;;;;;9.95;5.28;;;12.80;80.40;;;;;;5074457;28;20031;-74
2021/10/02 06:10:37;;;;;;;10.70;5.10;;;12.90;80.10;;;;;;5074280;28;20052;-73
2021/10/02 06:13:03;;;;;;;8.77;5.72;;;13.00;80.40;;;;;;5074456;28;20046;-73
2021/10/02 06:15:29;;;;;;;9.43;5.20;;;13.10;79.20;;;;;;5074293;28;20381;-76
2021/10/02 06:17:55;;;;;;;10.98;4.85;;;13.20;79.10;;;;;;5077266;28;20028;-76
2021/10/02 06:20:21;;;;;;;4.75;3.85;;;13.40;78.30;;;;;;5079164;28;20035;-74
2021/10/02 06:22:47;;;;;;;7.95;4.80;;;13.40;77.20;;;;;;5078119;28;20028;-74
2021/10/02 06:25:13;;;;;;;8.18;4.28;;;13.60;76.40;;;;;;5074126;28;20021;-73
2021/10/02 06:27:39;;;;;;;6.43;4.50;;;13.60;75.60;;;;;;5073917;28;20036;-75
2021/10/02 06:30:07;;;;;;;10.50;4.53;;;13.70;75.50;;;;;;5073555;28;20523;-74
2021/10/02 06:32:32;;;;;;;9.02;3.92;;;13.80;74.90;;;;;;5073774;28;20039;-74
2021/10/02 06:34:58;;;;;;;7.05;3.83;;;13.90;74.10;;;;;;5073753;28;20028;-75
2021/10/02 06:37:23;;;;;;;4.95;3.50;;;14.00;73.50;;;;;;5073597;28;20075;-74
2021/10/02 06:39:49;;;;;;;9.07;4.03;;;14.00;73.10;;;;;;5073708;28;20031;-73
2021/10/02 06:42:15;;;;;;;6.00;3.42;;;14.10;72.40;;;;;;5073912;28;20097;-74
2021/10/02 06:44:41;;;;;;;10.43;3.78;;;14.20;71.60;;;;;;5073529;28;20032;-74
2021/10/02 06:47:06;;;;;;;6.95;3.60;;;14.30;70.30;;;;;;5073514;28;20028;-72
2021/10/02 06:49:32;;;;;;;4.72;3.35;;;14.20;69.50;;;;;;5073341;28;20028;-72
2021/10/02 06:51:58;;;;;;;4.75;3.38;;;14.30;69.00;;;;;;5073420;28;20048;-71
2021/10/02 06:54:23;;;;;;;6.10;4.13;;;14.40;68.70;;;;;;5073319;28;20048;-71
2021/10/02 06:56:49;;;;;;;5.40;3.17;;;14.50;68.20;;;;;;5073663;28;20468;-72
2021/10/02 06:59:16;;;;;;;6.20;3.00;;;14.50;67.90;;;;;;5073488;28;20044;-75
2021/10/02 07:01:42;;;;;;;5.20;3.13;;;14.60;67.50;;;;;;5073505;28;20529;-72
2021/10/02 07:04:09;;;;;;;4.07;2.72;;;14.60;66.90;;;;;;5073428;28;20025;-71
2021/10/02 07:06:34;;;;;;;7.15;4.85;;;14.80;66.50;;;;;;5073334;28;20059;-74
2021/10/02 07:09:00;;;;;;;4.30;3.10;;;14.90;66.40;;;;;;5073437;28;20052;-74
2021/10/02 07:11:25;;;;;;;9.05;4.13;;;15.00;65.70;;;;;;5074294;28;20025;-74
2021/10/02 07:13:51;;;;;;;8.95;3.70;;;15.00;64.80;;;;;;5076102;28;20016;-74
2021/10/02 07:16:17;;;;;;;5.93;3.58;;;15.10;64.40;;;;;;5075056;28;20032;-73
2021/10/02 07:18:42;;;;;;;11.10;5.50;;;15.30;64.60;;;;;;5071640;28;20068;-72
2021/10/02 07:21:08;;;;;;;4.70;2.78;;;15.20;64.30;;;;;;5073345;28;20024;-73
2021/10/02 07:23:34;;;;;;;3.95;2.28;;;15.30;64.70;;;;;;5073055;28;20024;-72
2021/10/02 07:26:00;;;;;;;5.72;3.08;;;15.40;67.00;;;;;;5072997;28;20039;-72
2021/10/02 07:28:26;;;;;;;5.78;2.88;;;15.50;65.80;;;;;;5071676;28;20078;-73
2021/10/02 07:30:52;;;;;;;4.38;2.72;;;15.70;66.10;;;;;;5072885;28;20437;-73
2021/10/02 07:33:17;;;;;;;6.22;3.10;;;15.80;64.90;;;;;;5072967;28;20024;-72
2021/10/02 07:35:43;;;;;;;8.15;3.17;;;15.90;64.70;;;;;;5073000;28;20020;-77
2021/10/02 07:38:09;;;;;;;10.68;3.58;;;16.00;66.40;;;;;;5072805;28;20029;-77
2021/10/02 07:40:37;;;;;;;9.52;3.53;;;16.30;69.50;;;;;;5072109;28;20023;-76
2021/10/02 07:43:03;;;;;;;6.60;3.65;;;16.60;68.60;;;;;;5072237;28;20068;-75
2021/10/02 07:45:30;;;;;;;9.77;3.58;;;16.90;65.20;;;;;;5072608;28;20028;-76
2021/10/02 07:47:57;;;;;;;5.43;2.63;;;17.20;65.30;;;;;;5072957;28;20103;-76
2021/10/02 07:50:23;;;;;;;6.88;3.55;;;17.30;62.10;;;;;;5072562;28;20021;-76
2021/10/02 07:52:50;;;;;;;4.32;3.00;;;17.50;61.80;;;;;;5072671;28;20132;-77
2021/10/02 07:55:16;;;;;;;5.95;2.67;;;17.60;62.10;;;;;;5072794;28;20021;-74
2021/10/02 07:57:44;;;;;;;4.30;2.72;;;17.60;59.80;;;;;;5072432;28;20032;-74
2021/10/02 08:00:13;;;;;;;7.10;3.25;;;17.70;58.50;;;;;;5072544;28;20104;-77
2021/10/02 08:02:47;;;;;;;6.07;3.03;;;17.60;57.80;;;;;;5072512;28;20028;-77
2021/10/02 08:05:14;;;;;;;4.43;2.65;;;17.80;58.00;;;;;;5072454;28;20484;-77
2021/10/02 08:07:41;;;;;;;3.40;2.30;;;17.80;57.00;;;;;;5072540;28;20032;-77
2021/10/02 08:10:08;;;;;;;4.78;3.28;;;17.80;57.80;;;;;;5072433;28;20086;-77
2021/10/02 08:12:34;;;;;;;4.68;3.15;;;17.80;57.20;;;;;;5072122;28;20027;-76
2021/10/02 08:15:00;;;;;;;7.30;3.30;;;17.80;57.80;;;;;;5072483;28;20103;-76
2021/10/02 08:17:27;;;;;;;4.57;2.88;;;17.80;57.30;;;;;;5072191;28;20086;-76
2021/10/02 08:19:59;;;;;;;5.65;3.17;;;17.90;56.90;;;;;;5072599;28;20510;-76
2021/10/02 08:22:26;;;;;;;7.25;3.60;;;18.00;56.90;;;;;;5072565;28;20115;-76
2021/10/02 08:24:52;;;;;;;5.78;3.92;;;18.10;57.20;;;;;;5072537;28;20103;-76
2021/10/02 08:27:21;;;;;;;6.63;3.75;;;18.00;57.90;;;;;;5075916;28;20016;-76
2021/10/02 08:29:51;;;;;;;4.35;3.58;;;18.10;58.50;;;;;;5076048;28;20465;-76
2021/10/02 08:32:17;;;;;;;10.70;4.22;;;18.20;58.60;;;;;;5076120;28;20035;-76
2021/10/02 08:34:42;;;;;;;8.25;4.43;;;18.20;58.80;;;;;;5075828;28;20028;-77
2021/10/02 08:37:08;;;;;;;5.55;3.95;;;18.30;59.00;;;;;;5076131;28;20028;-76
2021/10/02 08:39:34;;;;;;;6.13;4.28;;;18.40;58.90;;;;;;5075577;28;20036;-74
2021/10/02 08:42:01;;;;;;;8.18;4.97;;;18.50;58.90;;;;;;5076000;28;20024;-75
2021/10/02 08:44:28;;;;;;;8.45;4.82;;;18.60;58.50;;;;;;5075783;28;20035;-75
2021/10/02 08:46:54;;;;;;;11.35;5.43;;;18.50;58.70;;;;;;5075663;28;20028;-74
2021/10/02 08:49:30;;;;;;;7.50;4.70;;;18.40;59.50;;;;;;5075727;28;20048;-74
2021/10/02 08:51:57;;;;;;;9.10;5.00;;;18.40;60.10;;;;;;5075674;28;20024;-75
2021/10/02 08:54:23;;;;;;;9.65;4.60;;;18.60;59.60;;;;;;5075610;28;20054;-74
2021/10/02 08:56:50;;;;;;;9.35;5.18;;;18.70;58.70;;;;;;5075603;28;20033;-74
2021/10/02 08:59:16;;;;;;;6.32;4.70;;;18.90;58.40;;;;;;5074041;28;20400;-75
2021/10/02 09:01:42;;;;;;;10.02;4.72;;;18.90;57.90;;;;;;5075347;28;20017;-74
2021/10/02 09:04:07;;;;;;;8.10;3.83;;;19.00;57.20;;;;;;5075656;28;20093;-75
2021/10/02 09:06:34;;;;;;;6.80;4.47;;;18.90;55.50;;;;;;5075463;28;20025;-76
2021/10/02 09:09:00;;;;;;;7.38;4.13;;;19.10;56.20;;;;;;5075672;28;20021;-76
2021/10/02 09:11:27;;;;;;;8.02;4.20;;;19.10;55.50;;;;;;5074968;28;20038;-77
2021/10/02 09:13:53;;;;;;;7.15;4.30;;;19.10;56.40;;;;;;5075141;28;20368;-75
2021/10/02 09:16:19;;;;;;;7.90;4.95;;;19.20;55.10;;;;;;5075443;28;20056;-76
2021/10/02 09:18:46;;;;;;;7.93;4.30;;;19.30;54.20;;;;;;5075320;28;20094;-75
2021/10/02 09:21:13;;;;;;;10.27;4.95;;;19.30;55.00;;;;;;5077078;28;20020;-74
2021/10/02 09:23:47;;;;;;;7.35;4.47;;;19.40;55.00;;;;;;5075938;28;20374;-75
2021/10/02 09:26:13;;;;;;;6.57;4.50;;;19.50;53.30;;;;;;5075981;28;20025;-76
2021/10/02 09:28:44;;;;;;;6.70;4.07;;;19.50;53.70;;;;;;5077482;28;20024;-74
2021/10/02 09:31:10;;;;;;;7.90;4.07;;;19.60;53.40;;;;;;5078961;28;20025;-76
2021/10/02 09:33:42;;;;;;;6.93;3.80;;;19.60;52.80;;;;;;5076407;28;20021;-75
2021/10/02 09:36:18;;;;;;;6.97;3.60;;;19.70;52.70;;;;;;5075941;28;20054;-72
2021/10/02 09:38:51;;;;;;;6.57;3.80;;;19.70;52.90;;;;;;5085510;28;20032;-72
2021/10/02 09:41:18;;;;;;;6.57;4.05;;;19.60;52.20;;;;;;5076902;28;20373;-73
2021/10/02 09:43:48;;;;;;;5.72;4.38;;;19.60;51.70;;;;;;5075435;28;20032;-73
2021/10/02 09:46:14;;;;;;;6.93;3.83;;;19.60;52.40;;;;;;5075470;28;20020;-73
2021/10/02 09:48:40;;;;;;;6.00;3.92;;;19.70;52.60;;;;;;5078993;28;20013;-73
2021/10/02 09:51:09;;;;;;;6.07;4.10;;;20.00;51.70;;;;;;5075001;28;20366;-73
2021/10/02 09:53:40;;;;;;;5.60;3.97;;;20.20;51.70;;;;;;5074865;28;20125;-75
2021/10/02 09:56:11;;;;;;;7.35;4.25;;;20.10;51.60;;;;;;5074466;28;20032;-73
2021/10/02 09:58:37;;;;;;;7.40;3.85;;;20.30;50.30;;;;;;5072473;28;20353;-72
2021/10/02 10:01:04;;;;;;;6.57;3.75;;;20.10;50.90;;;;;;5074102;28;20066;-72
2021/10/02 10:03:39;;;;;;;6.75;3.53;;;20.30;50.70;;;;;;5074141;28;20066;-73
2021/10/02 10:06:15;;;;;;;6.75;3.78;;;20.50;48.90;;;;;;5074117;28;20489;-73
2021/10/02 10:08:41;;;;;;;9.18;3.92;;;20.50;47.80;;;;;;5074175;28;20041;-73
2021/10/02 10:11:09;;;;;;;6.93;3.72;;;20.40;49.20;;;;;;5074273;28;20368;-72
2021/10/02 10:13:35;;;;;;;5.07;3.35;;;20.40;48.40;;;;;;5073907;28;20452;-72
2021/10/02 10:16:05;;;;;;;5.70;3.60;;;20.60;46.60;;;;;;5074177;28;20056;-74
2021/10/02 10:18:34;;;;;;;8.15;3.25;;;20.80;46.30;;;;;;5073882;28;20085;-73
2021/10/02 10:21:03;;;;;;;4.95;3.22;;;21.00;46.40;;;;;;5073980;28;20032;-73
2021/10/02 10:23:36;;;;;;;4.75;3.08;;;21.10;46.40;;;;;;5074039;28;20051;-74
2021/10/02 10:26:30;;;;;;;4.45;3.10;;;21.30;44.60;;;;;;5073849;28;20052;-74
2021/10/02 10:29:02;;;;;;;7.85;3.80;;;21.40;43.90;;;;;;5072955;28;20037;-75
2021/10/02 10:31:28;;;;;;;3.97;2.92;;;21.60;43.80;;;;;;5074052;28;20016;-75
2021/10/02 10:33:57;;;;;;;5.82;3.08;;;21.60;42.70;;;;;;5073788;28;20311;-75
2021/10/02 10:36:27;;;;;;;5.35;3.15;;;21.70;43.20;;;;;;5073756;28;20524;-74
2021/10/02 10:38:53;;;;;;;4.88;3.25;;;21.80;42.50;;;;;;5073926;28;20028;-75
2021/10/02 10:41:21;;;;;;;4.35;2.75;;;21.90;42.70;;;;;;5073952;28;20166;-75
2021/10/02 10:43:48;;;;;;;4.53;3.08;;;21.80;41.50;;;;;;5073742;28;20029;-76
2021/10/02 10:46:16;;;;;;;7.65;3.05;;;22.00;41.00;;;;;;5073681;28;20016;-75
2021/10/02 10:48:42;;;;;;;3.90;3.03;;;22.20;41.60;;;;;;5072744;28;20024;-75
2021/10/02 10:51:10;;;;;;;5.13;3.38;;;22.10;41.00;;;;;;5073477;28;20039;-74
2021/10/02 10:53:47;;;;;;;4.72;3.28;;;22.10;40.90;;;;;;5072899;28;20066;-76
2021/10/02 10:56:16;;;;;;;5.75;3.42;;;22.20;41.90;;;;;;5072741;28;20515;-75
2021/10/02 10:58:43;;;;;;;5.95;3.97;;;22.30;41.80;;;;;;5073186;28;20040;-75
2021/10/02 11:01:10;;;;;;;4.40;3.40;;;22.60;41.20;;;;;;5073368;28;20033;-75
2021/10/02 11:03:42;;;;;;;5.90;3.65;;;22.70;41.50;;;;;;5073018;28;20042;-75
2021/10/02 11:06:09;;;;;;;7.68;3.47;;;22.80;41.30;;;;;;5073283;28;20030;-75
2021/10/02 11:09:04;;;;;;;4.43;3.17;;;22.50;41.20;;;;;;5073039;28;20028;-75
2021/10/02 11:11:51;;;;;;;4.80;3.28;;;22.60;42.20;;;;;;5073205;28;20464;-75
2021/10/02 11:14:46;;;;;;;5.10;3.30;;;22.60;42.00;;;;;;5073309;28;20150;-74
2021/10/02 11:17:12;;;;;;;6.43;3.60;;;22.80;41.50;;;;;;5073098;28;20032;-76
2021/10/02 11:19:40;;;;;;;5.32;3.20;;;23.30;41.00;;;;;;5073131;28;20532;-76
2021/10/02 11:23:08;;;;;;;5.32;3.20;;;23.40;40.50;;;;;;5072961;28;20081;-77
2021/10/02 11:25:35;;;;;;;6.88;3.35;;;23.60;38.60;;;;;;5070257;28;20478;-76
2021/10/02 11:28:22;;;;;;;4.95;3.33;;;23.00;40.20;;;;;;5072994;28;20507;-77
2021/10/02 11:30:51;;;;;;;3.45;2.75;;;23.00;40.60;;;;;;5073067;28;20093;-76
2021/10/02 11:33:46;;;;;;;5.18;3.17;;;23.00;39.90;;;;;;5072913;28;20433;-74
2021/10/02 11:36:32;;;;;;;5.97;3.45;;;23.10;38.90;;;;;;5072807;28;20028;-74
2021/10/02 11:39:20;;;;;;;5.18;3.22;;;22.90;38.20;;;;;;5072813;28;20369;-75
2021/10/02 11:41:49;;;;;;;4.20;2.53;;;22.90;37.80;;;;;;5072973;28;20048;-75
2021/10/02 11:44:33;;;;;;;3.83;2.75;;;23.20;36.80;;;;;;5072805;28;20027;-76
2021/10/02 11:47:27;;;;;;;3.83;3.03;;;23.50;36.60;;;;;;5072749;28;20515;-76
2021/10/02 11:50:07;;;;;;;5.60;2.88;;;23.80;36.30;;;;;;5072675;28;20024;-76
2021/10/02 11:52:43;;;;;;;4.15;2.78;;;23.90;36.70;;;;;;5071188;28;20145;-76
2021/10/02 11:55:33;;;;;;;4.88;3.20;;;23.90;36.00;;;;;;5072725;28;20028;-76
2021/10/02 11:58:08;;;;;;;3.90;2.75;;;23.70;36.20;;;;;;5072590;28;20035;-76
2021/10/02 12:00:48;;;;;;;5.20;3.10;;;23.50;36.20;;;;;;5076624;28;20046;-76
2021/10/02 12:03:35;;;;;;;3.80;2.85;;;22.90;36.00;;;;;;5078243;28;20377;-73
2021/10/02 12:06:03;;;;;;;5.07;3.10;;;22.60;36.30;;;;;;5079268;28;20326;-74
2021/10/02 12:08:33;;;;;;;4.93;2.92;;;22.40;37.10;;;;;;5079193;28;20428;-76
2021/10/02 12:11:07;;;;;;;5.03;3.28;;;22.20;37.50;;;;;;5079041;28;20029;-76
2021/10/02 12:13:39;;;;;;;4.85;3.13;;;21.90;38.00;;;;;;5078664;28;20086;-75
2021/10/02 12:16:08;;;;;;;3.20;2.90;;;21.70;38.50;;;;;;5078943;28;20021;-76
2021/10/02 12:18:49;;;;;;;6.30;3.47;;;21.60;39.70;;;;;;5078990;28;20040;-76
2021/10/02 12:21:23;;;;;;;4.30;3.20;;;21.80;39.70;;;;;;5079047;28;20048;-76
2021/10/02 12:23:58;;;;;;;3.83;3.40;;;22.20;39.30;;;;;;5078935;28;20111;-74
2021/10/02 12:26:26;;;;;;;5.00;3.97;;;22.60;39.60;;;;;;5078860;28;20020;-74
2021/10/02 12:29:00;;;;;;;3.90;3.47;;;23.20;38.50;;;;;;5078819;28;20040;-75
2021/10/02 12:31:57;;;;;;;4.27;3.23;;;23.50;37.60;;;;;;5078932;28;20071;-74
2021/10/02 12:34:35;;;;;;;4.32;3.42;;;23.70;37.30;;;;;;5078889;28;20806;-74
2021/10/02 12:37:09;;;;;;;4.60;3.67;;;23.40;38.00;;;;;;5078756;28;20056;-74
2021/10/02 12:39:40;;;;;;;7.57;3.55;;;23.10;39.00;;;;;;5078674;28;20544;-77
2021/10/02 12:42:08;;;;;;;4.15;3.55;;;23.20;39.10;;;;;;5078604;28;20055;-76
2021/10/02 12:44:39;;;;;;;5.65;3.50;;;23.50;38.90;;;;;;5077577;28;20478;-73
2021/10/02 12:47:08;;;;;;;5.72;4.07;;;23.80;38.90;;;;;;5078616;28;20028;-75
2021/10/02 12:49:43;;;;;;;6.18;3.60;;;23.70;38.70;;;;;;5078803;28;20035;-75
2021/10/02 12:52:09;;;;;;;4.90;3.17;;;24.10;38.50;;;;;;5077294;28;20391;-75
2021/10/02 12:54:36;;;;;;;4.65;3.53;;;24.30;37.70;;;;;;5078889;28;20488;-76
2021/10/02 12:57:04;;;;;;;3.97;3.10;;;24.20;36.90;;;;;;5078638;28;20510;-77
2021/10/02 12:59:56;;;;;;;6.40;3.83;;;23.70;36.90;;;;;;5078605;28;20052;-76
2021/10/02 13:02:21;;;;;;;4.45;4.03;;;23.20;38.60;;;;;;5077190;28;20051;-75
2021/10/02 13:04:49;;;;;;;7.90;3.28;;;22.90;39.60;;;;;;5078887;28;20484;-75
2021/10/02 13:07:26;;;;;;;4.32;3.60;;;23.10;41.60;;;;;;5078369;28;20090;-74
2021/10/02 13:10:00;;;;;;;6.55;4.57;;;23.20;42.40;;;;;;5078544;28;20024;-75
2021/10/02 13:12:36;;;;;;;5.22;4.07;;;23.40;43.00;;;;;;5074995;28;20100;-74
2021/10/02 13:15:06;;;;;;;7.15;4.30;;;23.80;42.20;;;;;;5075301;28;20029;-74
2021/10/02 13:17:31;;;;;;;5.88;4.10;;;24.20;40.50;;;;;;5075302;28;20032;-74
2021/10/02 13:20:06;;;;;;;4.22;3.25;;;24.40;38.90;;;;;;5075506;28;20020;-74
2021/10/02 13:22:40;;;;;;;4.00;3.30;;;24.80;37.70;;;;;;5075270;28;20039;-74
2021/10/02 13:25:11;;;;;;;5.05;3.78;;;25.00;36.70;;;;;;5075318;28;20264;-74
2021/10/02 13:27:41;;;;;;;4.85;3.45;;;25.30;36.30;;;;;;5075039;28;20024;-74
2021/10/02 13:30:21;;;;;;;4.60;3.25;;;25.40;35.40;;;;;;5075063;28;20023;-74
2021/10/02 13:33:13;;;;;;;3.55;3.05;;;25.60;35.00;;;;;;5074804;28;20032;-74
2021/10/02 13:35:46;;;;;;;4.97;3.40;;;25.50;35.40;;;;;;5073856;28;20028;-73
2021/10/02 13:38:11;;;;;;;3.80;3.33;;;25.60;35.40;;;;;;5075113;28;20566;-74
2021/10/02 13:40:39;;;;;;;4.30;3.42;;;26.00;35.30;;;;;;5073479;28;20021;-74
2021/10/02 13:43:10;;;;;;;5.63;3.38;;;26.00;35.20;;;;;;5075078;28;20063;-75
2021/10/02 13:45:41;;;;;;;3.97;3.53;;;25.90;34.80;;;;;;5074865;28;20380;-78
2021/10/02 13:48:09;;;;;;;5.03;3.40;;;25.80;34.00;;;;;;5074551;28;20066;-77
2021/10/02 13:50:36;;;;;;;3.55;2.90;;;25.50;34.00;;;;;;5073284;28;20476;-74